Terminal Aerodrome Forecast
Issued by NWS

Home | Current Version | Previous Version | Text Only | Print | Product List | Glossary On
Versions: 1 2 3 4 5 6 7 8 9 10 11 12 13 14 15
000
FTUS46 KPDT 242320
TAFRDM
TAF
KRDM 242320Z 2500/2524 35008G15KT P6SM SCT130 BKN200
     FM250900 VRB04KT P6SM SCT130 SCT250
     FM252100 35008KT P6SM SCT130 SCT250=

USA.gov is the U.S. government's official web portal to all federal, state and local government web resources and services.